Time;durP1;ratioP1;P1;durP2;ratioP2;P2;SDS_P1;SDS_P2;PMS_P1;PMS_P2;Temp;Humidity;BMP_temperature;BMP_pressure;BME280_temperature;BME280_humidity;BME280_pressure;Samples;Min_cycle;Max_cycle;Signal;HPM_P1;HPM_P2
2023/05/06 00:00:47;;;;;;;25.95;17.00;;;;;;;;;;4915153;29;20055;-94
2023/05/06 00:03:13;;;;;;;24.75;17.42;;;;;;;;;;4902334;29;20036;-91
2023/05/06 00:05:39;;;;;;;27.05;17.88;;;;;;;;;;4902206;29;20032;-90
2023/05/06 00:08:16;;;;;;;28.63;18.25;;;;;;;;;;4901712;29;20072;-89
2023/05/06 00:10:42;;;;;;;28.05;18.77;;;;;;;;;;4902212;29;20025;-90
2023/05/06 00:13:08;;;;;;;32.08;18.90;;;;;;;;;;4901473;29;20052;-89
2023/05/06 00:15:43;;;;;;;24.50;18.33;;;;;;;;;;4902704;29;20036;-95
2023/05/06 00:18:14;;;;;;;25.25;18.17;;;;;;;;;;4887934;29;20032;-96
2023/05/06 00:20:40;;;;;;;28.98;18.92;;;;;;;;;;4905373;29;20043;-93
2023/05/06 00:23:39;;;;;;;31.23;18.88;;;;;;;;;;4906019;29;20032;-89
2023/05/06 00:26:06;;;;;;;27.35;18.25;;;;;;;;;;4922339;29;20024;-91
2023/05/06 00:28:33;;;;;;;28.42;19.55;;;;;;;;;;4906067;29;20024;-91
2023/05/06 00:30:59;;;;;;;31.48;17.63;;;;;;;;;;4905640;29;20039;-91
2023/05/06 00:33:26;;;;;;;29.30;19.95;;;;;;;;;;4905299;29;20032;-94
2023/05/06 00:35:52;;;;;;;30.48;19.25;;;;;;;;;;4905564;29;20033;-91
2023/05/06 00:41:02;;;;;;;30.70;20.80;;;;;;;;;;4901326;29;20084;-90
2023/05/06 00:43:31;;;;;;;29.92;19.67;;;;;;;;;;4902150;29;20044;-96
2023/05/06 00:46:00;;;;;;;30.70;19.38;;;;;;;;;;4902002;29;20040;-96
2023/05/06 00:48:35;;;;;;;30.80;20.48;;;;;;;;;;4902887;29;20164;-94
2023/05/06 00:51:02;;;;;;;29.88;20.58;;;;;;;;;;4902594;29;20029;-90
2023/05/06 00:53:34;;;;;;;32.17;21.42;;;;;;;;;;4901792;29;20029;-95
2023/05/06 00:56:00;;;;;;;34.75;22.73;;;;;;;;;;4902597;29;20065;-90
2023/05/06 00:58:26;;;;;;;35.38;22.52;;;;;;;;;;4902294;29;20076;-94
2023/05/06 01:00:52;;;;;;;37.33;22.15;;;;;;;;;;4901367;29;20083;-95
2023/05/06 01:03:24;;;;;;;30.48;21.50;;;;;;;;;;4901746;29;20116;-94
2023/05/06 01:05:55;;;;;;;35.75;22.55;;;;;;;;;;4883075;29;20075;-90
2023/05/06 01:08:31;;;;;;;36.30;23.08;;;;;;;;;;4882816;29;20033;-95
2023/05/06 01:11:09;;;;;;;32.10;20.92;;;;;;;;;;4878441;29;20044;-90
2023/05/06 01:14:19;;;;;;;41.35;25.02;;;;;;;;;;4884035;29;20475;-94
2023/05/06 01:16:47;;;;;;;37.67;22.73;;;;;;;;;;4809643;29;20068;-91
2023/05/06 01:19:27;;;;;;;;;;;;;;;;;;;;;
2023/05/06 01:24:57;;;;;;;35.20;21.70;;;;;;;;;;4902199;29;20130;-91
2023/05/06 01:27:30;;;;;;;34.50;23.15;;;;;;;;;;4900688;29;20111;-95
2023/05/06 01:29:57;;;;;;;37.03;24.50;;;;;;;;;;4899806;29;20060;-92
2023/05/06 01:32:56;;;;;;;37.55;23.73;;;;;;;;;;4901630;29;20035;-90
2023/05/06 01:35:28;;;;;;;37.88;23.05;;;;;;;;;;4811257;29;20407;-89
2023/05/06 01:41:01;;;;;;;35.70;23.30;;;;;;;;;;4901238;29;20559;-90
2023/05/06 01:43:29;;;;;;;36.92;22.73;;;;;;;;;;4900238;29;20056;-89
2023/05/06 01:45:55;;;;;;;34.63;23.85;;;;;;;;;;4900074;29;20039;-94
2023/05/06 01:48:36;;;;;;;37.50;23.67;;;;;;;;;;4900376;29;20500;-94
2023/05/06 01:51:02;;;;;;;33.83;22.25;;;;;;;;;;4900207;29;20066;-90
2023/05/06 01:53:32;;;;;;;37.92;23.45;;;;;;;;;;4902199;29;20036;-90
2023/05/06 01:55:58;;;;;;;36.13;23.95;;;;;;;;;;4900936;29;20036;-90
2023/05/06 01:58:24;;;;;;;34.92;21.38;;;;;;;;;;4900014;29;20047;-90
2023/05/06 02:00:57;;;;;;;37.55;24.83;;;;;;;;;;4900311;29;20040;-94
2023/05/06 02:03:23;;;;;;;37.60;24.05;;;;;;;;;;4900225;29;20084;-91
2023/05/06 02:05:49;;;;;;;36.47;24.60;;;;;;;;;;4900140;29;20462;-90
2023/05/06 02:08:15;;;;;;;39.65;25.65;;;;;;;;;;4900631;29;20092;-91
2023/05/06 02:10:41;;;;;;;39.33;25.17;;;;;;;;;;4900153;29;20119;-91
2023/05/06 02:13:11;;;;;;;36.75;24.13;;;;;;;;;;4901283;29;20441;-94
2023/05/06 02:15:37;;;;;;;35.83;23.67;;;;;;;;;;4899937;29;20028;-93
2023/05/06 02:18:18;;;;;;;35.22;24.08;;;;;;;;;;4901241;29;20524;-94
2023/05/06 02:20:50;;;;;;;30.20;20.58;;;;;;;;;;4890782;29;20147;-95
2023/05/06 02:23:17;;;;;;;31.55;21.48;;;;;;;;;;4901652;29;20033;-88
2023/05/06 02:25:43;;;;;;;47.45;27.40;;;;;;;;;;4899559;29;20496;-94
2023/05/06 02:31:16;;;;;;;50.90;26.70;;;;;;;;;;4902553;29;20088;-90
2023/05/06 02:33:48;;;;;;;36.65;23.10;;;;;;;;;;4906727;29;20328;-92
2023/05/06 02:36:14;;;;;;;31.85;21.10;;;;;;;;;;4900378;29;20044;-91
2023/05/06 02:38:42;;;;;;;37.55;24.77;;;;;;;;;;4900021;29;20028;-94
2023/05/06 02:41:09;;;;;;;40.45;25.40;;;;;;;;;;4899412;29;20072;-90
2023/05/06 02:43:35;;;;;;;40.25;25.35;;;;;;;;;;4899184;29;20057;-89
2023/05/06 02:46:17;;;;;;;40.63;23.73;;;;;;;;;;4899335;29;20119;-90
2023/05/06 02:48:43;;;;;;;38.55;24.92;;;;;;;;;;4900122;29;20417;-91
2023/05/06 02:51:35;;;;;;;43.03;25.35;;;;;;;;;;4899868;29;20038;-95
2023/05/06 02:54:01;;;;;;;39.08;23.80;;;;;;;;;;4896310;29;20036;-90
2023/05/06 02:56:45;;;;;;;43.15;25.42;;;;;;;;;;4899102;29;20056;-95
2023/05/06 02:59:20;;;;;;;39.22;23.30;;;;;;;;;;4890409;29;20044;-94
2023/05/06 03:01:55;;;;;;;37.22;23.75;;;;;;;;;;4899118;29;20520;-95
2023/05/06 03:04:22;;;;;;;32.90;21.70;;;;;;;;;;4899947;29;20108;-90
2023/05/06 03:06:56;;;;;;;31.50;21.15;;;;;;;;;;4899428;29;20143;-94
2023/05/06 03:09:22;;;;;;;38.70;22.80;;;;;;;;;;4899049;29;20063;-90
2023/05/06 03:12:05;;;;;;;30.52;20.77;;;;;;;;;;4899165;29;20036;-94
2023/05/06 03:15:08;;;;;;;31.77;21.50;;;;;;;;;;4903475;29;20036;-93
2023/05/06 03:17:34;;;;;;;32.85;21.20;;;;;;;;;;4897747;29;20148;-91
2023/05/06 03:20:01;;;;;;;27.40;19.40;;;;;;;;;;4898971;29;20112;-95
2023/05/06 03:22:27;;;;;;;33.13;22.27;;;;;;;;;;4883371;29;20047;-90
2023/05/06 03:25:16;;;;;;;29.95;19.88;;;;;;;;;;4899047;29;20132;-95
2023/05/06 03:30:53;;;;;;;31.75;20.40;;;;;;;;;;4900316;29;20084;-89
2023/05/06 03:33:19;;;;;;;34.58;21.63;;;;;;;;;;4898806;29;20032;-92
2023/05/06 03:35:46;;;;;;;35.88;22.73;;;;;;;;;;4899065;29;20021;-89
2023/05/06 03:38:12;;;;;;;35.42;22.55;;;;;;;;;;4898322;29;20047;-91
2023/05/06 03:43:42;;;;;;;35.45;22.73;;;;;;;;;;4899432;29;20035;-90
2023/05/06 03:46:08;;;;;;;31.73;22.25;;;;;;;;;;4898157;29;20092;-90
2023/05/06 03:48:34;;;;;;;22.48;17.23;;;;;;;;;;4899090;29;20032;-91
2023/05/06 03:51:00;;;;;;;30.85;21.08;;;;;;;;;;4898585;29;20032;-89
2023/05/06 03:53:27;;;;;;;32.33;21.50;;;;;;;;;;4898077;29;20028;-94
2023/05/06 03:55:54;;;;;;;30.45;21.33;;;;;;;;;;4899417;29;20032;-91
2023/05/06 03:58:32;;;;;;;30.00;19.95;;;;;;;;;;4898241;29;20502;-95
2023/05/06 04:00:59;;;;;;;29.35;19.80;;;;;;;;;;4899905;29;20048;-94
2023/05/06 04:03:46;;;;;;;29.27;21.10;;;;;;;;;;4896608;29;20067;-95
2023/05/06 04:06:38;;;;;;;26.95;20.00;;;;;;;;;;4898183;29;20134;-93
2023/05/06 04:09:23;;;;;;;29.77;21.45;;;;;;;;;;4898625;29;20063;-92
2023/05/06 04:11:49;;;;;;;29.50;19.98;;;;;;;;;;4898152;29;20033;-90
2023/05/06 04:14:15;;;;;;;26.50;19.08;;;;;;;;;;4897591;29;20081;-92
2023/05/06 04:16:41;;;;;;;22.20;16.35;;;;;;;;;;4897826;29;20037;-90
2023/05/06 04:22:11;;;;;;;28.58;17.77;;;;;;;;;;4899229;29;20052;-91
2023/05/06 04:24:37;;;;;;;39.53;18.70;;;;;;;;;;4898170;29;20375;-91
2023/05/06 04:27:40;;;;;;;22.05;17.65;;;;;;;;;;4898036;29;20024;-95
2023/05/06 04:30:07;;;;;;;25.40;17.10;;;;;;;;;;4888505;29;20051;-90
2023/05/06 04:32:33;;;;;;;26.42;19.15;;;;;;;;;;4897894;29;20042;-90
2023/05/06 04:34:59;;;;;;;26.55;19.48;;;;;;;;;;4897779;29;20108;-91
2023/05/06 04:41:01;;;;;;;23.35;18.30;;;;;;;;;;4837986;29;20150;-95
2023/05/06 04:43:31;;;;;;;26.50;20.05;;;;;;;;;;4881360;29;20401;-95
2023/05/06 04:45:57;;;;;;;24.63;18.08;;;;;;;;;;4882833;29;20487;-89
2023/05/06 04:48:23;;;;;;;21.08;15.95;;;;;;;;;;4897918;29;20473;-94
2023/05/06 04:51:03;;;;;;;23.55;18.63;;;;;;;;;;4878404;29;20044;-92
2023/05/06 04:53:51;;;;;;;26.48;19.35;;;;;;;;;;4864255;29;20093;-96
2023/05/06 04:56:23;;;;;;;25.77;18.60;;;;;;;;;;4878813;29;20064;-95
2023/05/06 04:58:49;;;;;;;25.13;17.73;;;;;;;;;;4896671;29;20047;-91
2023/05/06 05:01:15;;;;;;;23.83;18.25;;;;;;;;;;4896888;29;20049;-91
2023/05/06 05:03:41;;;;;;;22.65;17.38;;;;;;;;;;4897662;29;20063;-91
2023/05/06 05:06:08;;;;;;;19.98;15.18;;;;;;;;;;4884440;29;20037;-91
2023/05/06 05:08:35;;;;;;;23.48;17.23;;;;;;;;;;4885370;29;20036;-90
2023/05/06 05:11:01;;;;;;;17.40;14.63;;;;;;;;;;4884688;29;20514;-91
2023/05/06 05:13:27;;;;;;;23.55;15.98;;;;;;;;;;4900150;29;20031;-91
2023/05/06 05:15:56;;;;;;;19.48;17.25;;;;;;;;;;4899921;29;20043;-91
2023/05/06 05:18:22;;;;;;;19.10;15.70;;;;;;;;;;4900094;29;20084;-89
2023/05/06 05:20:48;;;;;;;20.73;17.02;;;;;;;;;;4900071;29;20051;-90
2023/05/06 05:23:14;;;;;;;21.27;16.40;;;;;;;;;;4885261;29;20485;-91
2023/05/06 05:25:40;;;;;;;19.83;16.20;;;;;;;;;;4884758;29;20036;-90
2023/05/06 05:28:06;;;;;;;20.15;16.90;;;;;;;;;;4902023;29;20028;-89
2023/05/06 05:30:32;;;;;;;20.75;15.77;;;;;;;;;;4884982;29;20030;-90
2023/05/06 05:32:59;;;;;;;21.65;16.45;;;;;;;;;;4884780;29;20068;-89
2023/05/06 05:35:25;;;;;;;16.10;13.98;;;;;;;;;;4884792;29;20037;-91
2023/05/06 05:37:51;;;;;;;16.83;13.85;;;;;;;;;;4884859;29;20037;-89
2023/05/06 05:40:17;;;;;;;19.17;16.23;;;;;;;;;;4884783;29;20509;-90
2023/05/06 05:42:43;;;;;;;18.23;15.43;;;;;;;;;;4900056;29;20044;-90
2023/05/06 05:45:10;;;;;;;23.08;15.05;;;;;;;;;;4903512;29;20048;-89
2023/05/06 05:47:36;;;;;;;24.45;14.85;;;;;;;;;;4903333;29;20072;-90
2023/05/06 05:50:02;;;;;;;21.25;16.20;;;;;;;;;;4903535;29;20067;-89
2023/05/06 05:52:29;;;;;;;21.10;15.13;;;;;;;;;;4903543;29;20024;-91
2023/05/06 05:54:55;;;;;;;22.63;16.15;;;;;;;;;;4903477;29;20040;-91
2023/05/06 05:57:21;;;;;;;20.33;14.30;;;;;;;;;;4902994;29;20087;-91
2023/05/06 05:59:47;;;;;;;17.48;14.00;;;;;;;;;;4904045;29;20343;-90
2023/05/06 06:02:13;;;;;;;17.48;14.00;;;;;;;;;;4903455;29;20455;-90
2023/05/06 06:04:40;;;;;;;16.77;14.60;;;;;;;;;;4903173;29;20477;-89
2023/05/06 06:07:06;;;;;;;17.13;14.38;;;;;;;;;;4902932;29;20171;-89
2023/05/06 06:09:32;;;;;;;15.18;13.52;;;;;;;;;;4903114;29;20544;-89
2023/05/06 06:11:58;;;;;;;16.92;14.43;;;;;;;;;;4903014;29;20031;-89
2023/05/06 06:14:24;;;;;;;16.05;13.98;;;;;;;;;;4903630;29;20096;-94
2023/05/06 06:16:50;;;;;;;17.13;15.05;;;;;;;;;;4902746;29;20032;-90
2023/05/06 06:19:16;;;;;;;17.27;14.93;;;;;;;;;;4904073;29;20032;-91
2023/05/06 06:21:42;;;;;;;15.95;13.77;;;;;;;;;;4889869;29;20063;-90
2023/05/06 06:27:13;;;;;;;19.10;14.90;;;;;;;;;;4911248;29;20068;-92
2023/05/06 06:29:39;;;;;;;17.55;15.60;;;;;;;;;;4903600;29;20032;-91
2023/05/06 06:32:05;;;;;;;18.83;16.05;;;;;;;;;;4904640;29;20481;-91
2023/05/06 06:34:31;;;;;;;19.50;16.05;;;;;;;;;;4906605;29;20040;-93
2023/05/06 06:36:58;;;;;;;21.50;17.05;;;;;;;;;;4902694;29;20390;-94
2023/05/06 06:39:24;;;;;;;20.42;16.48;;;;;;;;;;4896452;29;20032;-92
2023/05/06 06:41:50;;;;;;;18.95;15.80;;;;;;;;;;4899369;29;20523;-92
2023/05/06 06:44:16;;;;;;;19.15;15.32;;;;;;;;;;4900725;29;20052;-94
2023/05/06 06:46:42;;;;;;;19.10;16.33;;;;;;;;;;4901622;29;20033;-89
2023/05/06 06:49:19;;;;;;;21.67;15.93;;;;;;;;;;4912131;29;20032;-96
2023/05/06 06:51:45;;;;;;;20.48;16.20;;;;;;;;;;4902134;29;20470;-91
2023/05/06 06:54:11;;;;;;;22.42;16.63;;;;;;;;;;4899151;29;20084;-90
2023/05/06 06:56:37;;;;;;;20.48;16.17;;;;;;;;;;4898870;29;20063;-89
2023/05/06 06:59:03;;;;;;;19.85;15.45;;;;;;;;;;4898840;29;20431;-89
2023/05/06 07:01:29;;;;;;;26.70;16.65;;;;;;;;;;4898566;29;20068;-91
2023/05/06 07:03:55;;;;;;;20.20;16.95;;;;;;;;;;4899115;29;20025;-88
2023/05/06 07:06:23;;;;;;;20.90;17.10;;;;;;;;;;4898661;29;20068;-94
2023/05/06 07:08:49;;;;;;;20.40;17.20;;;;;;;;;;4882938;29;20112;-90
2023/05/06 07:11:15;;;;;;;20.77;16.60;;;;;;;;;;4898358;29;20123;-91
2023/05/06 07:13:41;;;;;;;18.60;16.00;;;;;;;;;;4898802;29;20068;-89
2023/05/06 07:16:07;;;;;;;19.23;16.58;;;;;;;;;;4898797;29;20032;-90
2023/05/06 07:18:33;;;;;;;21.40;17.05;;;;;;;;;;4898895;29;20028;-90
2023/05/06 07:20:59;;;;;;;21.00;16.38;;;;;;;;;;4898263;29;20175;-89
2023/05/06 07:23:26;;;;;;;21.40;17.23;;;;;;;;;;4898736;29;20466;-90
2023/05/06 07:25:52;;;;;;;26.20;18.45;;;;;;;;;;4898318;29;20040;-90
2023/05/06 07:28:18;;;;;;;28.25;18.95;;;;;;;;;;4897920;29;20032;-94
2023/05/06 07:30:45;;;;;;;23.75;18.65;;;;;;;;;;4898202;29;20037;-95
2023/05/06 07:33:14;;;;;;;21.60;17.50;;;;;;;;;;4899384;29;20039;-89
2023/05/06 07:35:40;;;;;;;21.90;17.48;;;;;;;;;;4898311;29;20119;-90
2023/05/06 07:38:06;;;;;;;22.40;17.67;;;;;;;;;;4899480;29;20025;-91
2023/05/06 07:40:33;;;;;;;19.35;17.10;;;;;;;;;;4899452;29;20044;-89
2023/05/06 07:42:59;;;;;;;23.80;18.70;;;;;;;;;;4899383;29;20056;-90
2023/05/06 07:45:25;;;;;;;18.90;16.45;;;;;;;;;;4898476;29;20036;-91
2023/05/06 07:47:51;;;;;;;23.27;19.92;;;;;;;;;;4898169;29;20036;-91
2023/05/06 07:50:17;;;;;;;24.08;20.08;;;;;;;;;;4897903;29;20043;-91
2023/05/06 07:52:43;;;;;;;22.35;17.90;;;;;;;;;;4898160;29;20064;-90
2023/05/06 07:55:10;;;;;;;20.48;17.08;;;;;;;;;;4898503;29;20031;-91
2023/05/06 07:57:36;;;;;;;21.50;19.20;;;;;;;;;;4898018;29;20517;-91
2023/05/06 08:00:08;;;;;;;20.88;18.58;;;;;;;;;;4902012;29;20124;-92
2023/05/06 08:02:37;;;;;;;22.13;17.98;;;;;;;;;;4902432;29;20036;-96
2023/05/06 08:05:10;;;;;;;24.67;20.48;;;;;;;;;;4899253;29;20032;-90
2023/05/06 08:07:54;;;;;;;17.90;15.88;;;;;;;;;;4894080;29;20072;-90
2023/05/06 08:10:31;;;;;;;18.02;16.02;;;;;;;;;;4901604;29;20123;-89
2023/05/06 08:13:15;;;;;;;19.23;16.33;;;;;;;;;;4901445;29;20155;-96
2023/05/06 08:19:05;;;;;;;21.10;18.50;;;;;;;;;;4940985;23;20068;-96
2023/05/06 08:21:31;;;;;;;21.80;17.70;;;;;;;;;;4932042;23;20455;-88
2023/05/06 08:23:57;;;;;;;20.23;16.02;;;;;;;;;;4902800;29;20060;-90
2023/05/06 08:26:25;;;;;;;21.30;17.23;;;;;;;;;;4901575;29;20386;-94
2023/05/06 08:28:51;;;;;;;19.55;17.00;;;;;;;;;;4901163;29;20024;-90
2023/05/06 08:31:18;;;;;;;20.33;18.17;;;;;;;;;;4919163;29;20071;-95
2023/05/06 08:33:45;;;;;;;20.42;16.60;;;;;;;;;;4901518;29;20039;-91
2023/05/06 08:36:18;;;;;;;;;;;;;;;;;;4904167;29;20035;-91
2023/05/06 08:38:49;;;;;;;17.10;15.30;;;;;;;;;;4902196;29;19907;-90
2023/05/06 08:41:18;;;;;;;16.60;14.90;;;;;;;;;;4905373;29;20044;-95
2023/05/06 08:43:46;;;;;;;20.00;16.92;;;;;;;;;;4905550;29;20032;-91
2023/05/06 08:46:18;;;;;;;18.80;16.48;;;;;;;;;;4924137;29;20032;-90
2023/05/06 08:48:46;;;;;;;17.08;14.93;;;;;;;;;;4925986;28;20028;-91
2023/05/06 08:51:17;;;;;;;19.20;17.20;;;;;;;;;;4907979;29;20051;-90
2023/05/06 08:53:47;;;;;;;19.85;17.75;;;;;;;;;;4905816;29;20047;-91
2023/05/06 08:56:15;;;;;;;18.67;16.67;;;;;;;;;;4907265;29;20043;-91
2023/05/06 08:59:08;;;;;;;19.50;17.50;;;;;;;;;;4923096;29;20068;-96
2023/05/06 09:01:37;;;;;;;19.58;17.45;;;;;;;;;;4905190;29;20146;-95
2023/05/06 09:04:04;;;;;;;21.02;17.50;;;;;;;;;;4906968;29;20036;-90
2023/05/06 09:06:30;;;;;;;20.92;16.63;;;;;;;;;;4907779;29;20033;-96
2023/05/06 09:09:00;;;;;;;22.02;18.02;;;;;;;;;;4910901;29;20028;-96
2023/05/06 09:11:32;;;;;;;17.92;16.02;;;;;;;;;;4908563;29;20481;-96
2023/05/06 09:14:28;;;;;;;18.35;15.30;;;;;;;;;;4893891;29;20576;-91
2023/05/06 09:17:01;;;;;;;19.27;17.15;;;;;;;;;;4849296;29;20074;-96
2023/05/06 09:19:31;;;;;;;19.33;16.88;;;;;;;;;;4832935;29;20507;-96
2023/05/06 09:22:00;;;;;;;16.55;14.85;;;;;;;;;;4899566;29;20055;-96
2023/05/06 09:24:30;;;;;;;18.40;16.50;;;;;;;;;;4904769;29;20032;-91
2023/05/06 09:26:56;;;;;;;26.67;24.10;;;;;;;;;;4906520;29;20032;-91
2023/05/06 09:29:45;;;;;;;15.85;14.25;;;;;;;;;;4923080;29;20036;-96
2023/05/06 09:32:14;;;;;;;15.98;14.07;;;;;;;;;;4905179;29;20096;-91
2023/05/06 09:34:45;;;;;;;18.58;16.63;;;;;;;;;;4906808;29;20032;-92
2023/05/06 09:37:11;;;;;;;19.30;15.13;;;;;;;;;;4905348;29;20029;-91
2023/05/06 09:39:40;;;;;;;18.25;16.35;;;;;;;;;;4918622;29;20442;-96
2023/05/06 09:45:31;;;;;;;15.63;14.05;;;;;;;;;;4924581;29;20401;-96
2023/05/06 09:47:57;;;;;;;15.85;14.25;;;;;;;;;;4923361;29;20036;-90
2023/05/06 09:50:40;;;;;;;15.85;14.13;;;;;;;;;;4922808;29;20046;-96
2023/05/06 09:53:18;;;;;;;15.95;14.27;;;;;;;;;;4925471;29;20035;-89
2023/05/06 09:55:45;;;;;;;16.02;14.20;;;;;;;;;;4921947;29;20032;-91
2023/05/06 09:58:12;;;;;;;16.55;14.95;;;;;;;;;;4922142;29;20035;-90
2023/05/06 10:00:38;;;;;;;17.17;14.10;;;;;;;;;;4921822;29;20154;-90
2023/05/06 10:03:05;;;;;;;14.48;13.05;;;;;;;;;;4922114;29;20103;-90
2023/05/06 10:05:33;;;;;;;14.75;13.18;;;;;;;;;;4923633;29;20042;-96
2023/05/06 10:08:06;;;;;;;14.32;12.80;;;;;;;;;;4920937;29;20035;-96
2023/05/06 10:10:33;;;;;;;15.73;13.25;;;;;;;;;;4921826;29;20028;-91
2023/05/06 10:13:02;;;;;;;14.85;13.13;;;;;;;;;;4923163;29;20036;-89
2023/05/06 10:15:28;;;;;;;14.50;13.00;;;;;;;;;;4922580;29;20036;-94
2023/05/06 10:17:55;;;;;;;14.20;12.70;;;;;;;;;;4929148;29;20036;-89
2023/05/06 10:20:23;;;;;;;14.88;11.73;;;;;;;;;;4929844;29;20039;-90
2023/05/06 10:23:19;;;;;;;14.55;10.88;;;;;;;;;;4926031;29;20048;-96
2023/05/06 10:25:46;;;;;;;14.25;12.50;;;;;;;;;;4919004;29;20040;-91
2023/05/06 10:28:22;;;;;;;14.95;13.38;;;;;;;;;;4923648;29;20486;-96
2023/05/06 10:30:51;;;;;;;12.40;10.65;;;;;;;;;;4930499;29;20024;-92
2023/05/06 10:33:35;;;;;;;19.60;16.65;;;;;;;;;;4921979;29;20032;-92
2023/05/06 10:36:10;;;;;;;15.68;11.50;;;;;;;;;;4923014;29;20541;-90
2023/05/06 10:38:41;;;;;;;13.60;9.77;;;;;;;;;;4918882;29;20389;-91
2023/05/06 10:41:07;;;;;;;13.23;9.60;;;;;;;;;;4919631;29;20115;-93
2023/05/06 10:43:37;;;;;;;16.02;13.27;;;;;;;;;;4920315;29;20485;-94
2023/05/06 10:46:25;;;;;;;14.82;10.45;;;;;;;;;;4921436;29;20067;-92
2023/05/06 10:52:32;;;;;;;13.82;11.98;;;;;;;;;;4919723;29;20122;-91
2023/05/06 10:55:23;;;;;;;16.02;12.50;;;;;;;;;;4902592;29;20100;-96
2023/05/06 10:57:54;;;;;;;17.85;12.45;;;;;;;;;;4900225;29;20080;-90
2023/05/06 11:00:20;;;;;;;16.52;11.35;;;;;;;;;;4899132;29;20039;-90
2023/05/06 11:02:52;;;;;;;15.55;11.00;;;;;;;;;;4903497;29;20028;-90
2023/05/06 11:05:43;;;;;;;13.00;10.75;;;;;;;;;;4920741;29;20024;-96
2023/05/06 11:08:29;;;;;;;15.40;10.13;;;;;;;;;;4925256;29;20092;-95
2023/05/06 11:11:33;;;;;;;12.07;9.02;;;;;;;;;;4926195;29;20072;-96
2023/05/06 11:14:11;;;;;;;12.20;9.80;;;;;;;;;;4921005;29;20478;-96
2023/05/06 11:16:56;;;;;;;11.90;9.18;;;;;;;;;;4919932;29;20122;-90
2023/05/06 11:19:24;;;;;;;16.83;9.90;;;;;;;;;;4919186;29;20064;-91
2023/05/06 11:21:57;;;;;;;11.00;9.68;;;;;;;;;;4925437;29;20043;-96
2023/05/06 11:24:23;;;;;;;10.40;9.20;;;;;;;;;;4892486;29;20051;-89
2023/05/06 11:26:50;;;;;;;9.68;8.70;;;;;;;;;;4901883;29;20036;-90
2023/05/06 11:29:17;;;;;;;13.27;9.80;;;;;;;;;;4901969;29;20107;-91
2023/05/06 11:31:43;;;;;;;12.73;10.75;;;;;;;;;;4902361;29;20119;-90
2023/05/06 11:34:11;;;;;;;11.60;10.32;;;;;;;;;;4904567;29;20034;-90
2023/05/06 11:37:03;;;;;;;14.90;10.40;;;;;;;;;;4903992;29;20489;-89
2023/05/06 11:39:34;;;;;;;12.57;11.23;;;;;;;;;;4905138;29;20028;-96
2023/05/06 11:42:05;;;;;;;13.32;10.60;;;;;;;;;;4886700;29;20405;-96
2023/05/06 11:44:36;;;;;;;15.13;10.70;;;;;;;;;;4905196;29;20051;-90
2023/05/06 11:47:10;;;;;;;12.38;11.05;;;;;;;;;;4908487;29;20039;-96
2023/05/06 11:49:37;;;;;;;11.57;10.38;;;;;;;;;;4904561;29;20032;-90
2023/05/06 11:52:03;;;;;;;10.57;9.43;;;;;;;;;;4905704;29;20111;-96
2023/05/06 11:54:38;;;;;;;14.13;9.77;;;;;;;;;;4890724;29;20036;-96
2023/05/06 11:57:04;;;;;;;13.52;10.32;;;;;;;;;;4906051;29;20524;-91
2023/05/06 11:59:43;;;;;;;10.60;9.60;;;;;;;;;;4903869;29;20036;-96
2023/05/06 12:02:12;;;;;;;10.75;9.55;;;;;;;;;;5135045;23;20052;-90
2023/05/06 12:04:40;;;;;;;12.73;10.32;;;;;;;;;;4897692;29;20032;-90
2023/05/06 12:07:07;;;;;;;11.38;9.98;;;;;;;;;;4898031;29;20063;-92
2023/05/06 12:09:36;;;;;;;11.23;10.02;;;;;;;;;;4899181;29;20031;-91
2023/05/06 12:12:06;;;;;;;10.52;8.65;;;;;;;;;;4899531;29;20043;-95
2023/05/06 12:14:32;;;;;;;10.35;9.23;;;;;;;;;;4897500;29;20518;-96
2023/05/06 12:16:59;;;;;;;15.52;8.40;;;;;;;;;;4898115;29;20025;-91
2023/05/06 12:19:26;;;;;;;11.13;9.10;;;;;;;;;;4897923;29;20036;-93
2023/05/06 12:21:52;;;;;;;11.15;9.80;;;;;;;;;;4897785;29;20048;-92
2023/05/06 12:24:30;;;;;;;15.50;10.68;;;;;;;;;;4897893;29;20029;-92
2023/05/06 12:26:57;;;;;;;13.43;10.27;;;;;;;;;;4899190;29;20025;-94
2023/05/06 12:29:44;;;;;;;9.85;8.38;;;;;;;;;;4899757;29;20033;-91
2023/05/06 12:32:11;;;;;;;10.95;8.73;;;;;;;;;;4897833;29;20060;-93
2023/05/06 12:47:06;;;;;;;13.48;11.55;;;;;;;;;;5153316;27;20424;-92
2023/05/06 12:49:45;;;;;;;10.52;9.20;;;;;;;;;;5134653;27;20103;-90
2023/05/06 12:52:12;;;;;;;12.80;10.35;;;;;;;;;;5113961;28;20119;-90
2023/05/06 12:54:38;;;;;;;10.75;9.55;;;;;;;;;;5347686;22;20019;-90
2023/05/06 12:57:04;;;;;;;11.38;8.73;;;;;;;;;;5106519;28;20063;-89
2023/05/06 12:59:31;;;;;;;11.55;9.93;;;;;;;;;;5084913;28;20033;-90
2023/05/06 13:01:57;;;;;;;12.18;9.50;;;;;;;;;;5073624;28;20025;-92
2023/05/06 13:04:26;;;;;;;14.23;10.20;;;;;;;;;;5073808;28;20021;-91
2023/05/06 13:06:52;;;;;;;12.15;10.60;;;;;;;;;;5085018;28;20070;-92
2023/05/06 13:09:19;;;;;;;10.95;9.85;;;;;;;;;;5106383;28;20008;-95
2023/05/06 13:11:48;;;;;;;11.10;10.00;;;;;;;;;;5100913;28;20028;-96
2023/05/06 13:14:15;;;;;;;18.65;15.05;;;;;;;;;;5097841;28;20039;-91
2023/05/06 13:16:41;;;;;;;21.23;15.80;;;;;;;;;;5098783;28;20032;-90
2023/05/06 13:19:08;;;;;;;15.27;12.48;;;;;;;;;;5099888;28;20020;-91
2023/05/06 13:21:46;;;;;;;14.82;11.10;;;;;;;;;;5085915;28;20016;-91
2023/05/06 13:24:16;;;;;;;12.70;11.40;;;;;;;;;;5078748;28;20062;-95
2023/05/06 13:26:45;;;;;;;12.68;11.15;;;;;;;;;;5073009;28;20035;-85
2023/05/06 13:29:11;;;;;;;15.40;10.95;;;;;;;;;;5088206;28;20118;-85
2023/05/06 13:31:38;;;;;;;11.65;10.45;;;;;;;;;;5092379;28;20115;-85
2023/05/06 13:34:04;;;;;;;15.15;12.40;;;;;;;;;;5095961;28;20062;-84
2023/05/06 13:36:31;;;;;;;15.88;12.75;;;;;;;;;;5071687;28;20040;-84
2023/05/06 13:38:57;;;;;;;13.57;11.85;;;;;;;;;;5098585;28;20031;-87
2023/05/06 13:41:24;;;;;;;15.15;13.75;;;;;;;;;;5075187;28;20422;-91
2023/05/06 13:43:51;;;;;;;8.73;5.93;;;;;;;;;;5074947;28;20025;-89
2023/05/06 13:46:17;;;;;;;7.65;3.90;;;;;;;;;;5072414;28;20216;-92
2023/05/06 13:48:53;;;;;;;4.50;2.55;;;;;;;;;;5073287;28;20016;-94
2023/05/06 13:51:19;;;;;;;15.80;8.88;;;;;;;;;;5073578;28;20024;-92
2023/05/06 13:53:50;;;;;;;5.43;1.98;;;;;;;;;;5082163;28;20107;-94
2023/05/06 14:00:12;;;;;;;5.03;1.33;;;;;;;;;;4996277;28;20202;-95
2023/05/06 14:02:38;;;;;;;6.68;2.63;;;;;;;;;;4996233;28;20155;-94
2023/05/06 14:11:11;;;;;;;3.47;1.55;;;;;;;;;;5056771;28;20428;-90
2023/05/06 14:13:40;;;;;;;3.92;2.25;;;;;;;;;;5055635;28;20116;-92
2023/05/06 14:16:07;;;;;;;3.47;2.50;;;;;;;;;;5055659;28;20032;-90
2023/05/06 14:18:33;;;;;;;3.60;2.67;;;;;;;;;;5055327;28;20041;-95
2023/05/06 14:20:59;;;;;;;6.63;4.00;;;;;;;;;;5055395;28;20070;-93
2023/05/06 14:23:25;;;;;;;7.40;6.30;;;;;;;;;;5055659;28;20052;-91
2023/05/06 14:25:51;;;;;;;7.70;6.90;;;;;;;;;;5055083;28;20472;-93
2023/05/06 14:28:17;;;;;;;9.75;8.50;;;;;;;;;;5055528;28;20074;-94
2023/05/06 14:30:44;;;;;;;8.10;7.13;;;;;;;;;;5092373;28;20037;-92
2023/05/06 14:33:12;;;;;;;5.70;3.75;;;;;;;;;;5058243;28;20024;-95
2023/05/06 14:35:45;;;;;;;5.80;2.75;;;;;;;;;;5058456;28;20461;-94
2023/05/06 14:38:11;;;;;;;3.13;2.30;;;;;;;;;;5058334;28;20052;-95
2023/05/06 14:40:37;;;;;;;3.90;3.38;;;;;;;;;;5067657;28;20028;-93
2023/05/06 14:43:04;;;;;;;3.72;3.00;;;;;;;;;;5078341;28;20030;-93
2023/05/06 14:45:30;;;;;;;4.07;2.80;;;;;;;;;;5062210;28;20115;-92
2023/05/06 14:47:56;;;;;;;3.45;2.58;;;;;;;;;;5057945;28;20021;-93
2023/05/06 14:50:23;;;;;;;4.43;3.15;;;;;;;;;;5058036;28;20032;-93
2023/05/06 14:52:49;;;;;;;3.78;3.08;;;;;;;;;;5067421;28;20016;-91
2023/05/06 14:55:15;;;;;;;4.30;3.05;;;;;;;;;;5070346;28;20044;-92
2023/05/06 14:57:41;;;;;;;3.50;2.67;;;;;;;;;;5054727;28;20075;-93
2023/05/06 15:00:08;;;;;;;4.25;3.33;;;;;;;;;;5054531;28;20029;-92
2023/05/06 15:02:39;;;;;;;7.28;4.10;;;;;;;;;;5054501;28;20036;-93
2023/05/06 15:05:09;;;;;;;8.30;4.80;;;;;;;;;;5054471;28;20032;-90
2023/05/06 15:07:35;;;;;;;5.80;4.75;;;;;;;;;;5054567;28;20112;-93
2023/05/06 15:10:01;;;;;;;6.63;4.28;;;;;;;;;;5070163;28;20043;-93
2023/05/06 15:12:27;;;;;;;5.93;5.30;;;;;;;;;;5074483;28;20059;-93
2023/05/06 15:14:54;;;;;;;8.05;5.95;;;;;;;;;;5074246;28;20119;-94
2023/05/06 15:17:20;;;;;;;7.18;5.82;;;;;;;;;;5074017;28;20051;-92
2023/05/06 15:19:46;;;;;;;7.57;6.35;;;;;;;;;;5073907;28;20025;-92
2023/05/06 15:22:12;;;;;;;7.70;6.90;;;;;;;;;;5074230;28;20059;-91
2023/05/06 15:24:39;;;;;;;12.27;9.95;;;;;;;;;;5073774;28;20021;-92
2023/05/06 15:27:05;;;;;;;10.45;9.20;;;;;;;;;;5073930;28;20028;-92
2023/05/06 15:29:32;;;;;;;7.43;5.60;;;;;;;;;;5056487;28;20025;-90
2023/05/06 15:31:58;;;;;;;5.88;4.50;;;;;;;;;;5054423;28;20029;-92
2023/05/06 15:34:24;;;;;;;5.03;3.80;;;;;;;;;;5054335;28;20052;-89
2023/05/06 15:36:51;;;;;;;7.78;3.88;;;;;;;;;;5053703;28;20041;-91
2023/05/06 15:39:17;;;;;;;3.80;2.70;;;;;;;;;;5053581;28;20029;-91